KDWH/DWH METAR and TAF weather

Enter ICAO airport designator
Station Type Date Time Source
KDWH METAR 2020/04/06 08:53 UTC NOAA

KDWH 060853Z AUTO 00000KT 7SM FEW090 17/16 A3000 RMK AO2 SLP157 T01720156 56010


Station Type Date Time Source
KDWH Decoded METAR 2020/04/06 08:53 UTC NOAA

HOUSTON HOOKS MEMORIAL, TX, United States (KDWH) 30-04N 95-33W 46M
Apr 06, 2020 - 04:53 AM EDT / 2020.04.06 0853 UTC
Wind: Calm:0
Visibility: 7 mile(s):0
Sky conditions: mostly clear
Temperature: 63.0 F (17.2 C)
Dew Point: 60.1 F (15.6 C)
Relative Humidity: 90%
Pressure (altimeter): 30 in. Hg (1015 hPa)
Pressure tendency: 0.03 inches (1.0 hPa) lower than three hours ago
ob: KDWH 060853Z AUTO 00000KT 7SM FEW090 17/16 A3000 RMK AO2 SLP157 T01720156 56010
cycle: 9

Station Type Date Time Source
KDWH TAF 2017/02/07 15:09 UTC NOAA

TAF
AMD KDWH 071507Z 0715/0812 23010KT P6SM BKN015
TEMPO 0715/0719 SCT015
FM071900 25010KT P6SM SCT025
FM080100 22005KT P6SM SCT250
TEMPO 0807/0809 3SM BR BKN013
FM080900 VRB03KT 2SM BR OVC008

Example: see airport list